createdAt,value
2022-11-03T00:01:51.213Z,10.95
2022-11-03T00:04:20.953Z,11.45
2022-11-03T00:06:50.637Z,9.63
2022-11-03T00:09:19.134Z,10.95
2022-11-03T00:11:47.867Z,10.70
2022-11-03T00:14:15.286Z,10.20
2022-11-03T00:16:42.334Z,10.63
2022-11-03T00:19:10.809Z,10.07
2022-11-03T00:21:38.480Z,11.10
2022-11-03T00:24:06.024Z,9.25
2022-11-03T00:26:34.857Z,15.35
2022-11-03T00:29:07.129Z,9.88
2022-11-03T00:31:36.053Z,9.52
2022-11-03T00:34:04.012Z,10.93
2022-11-03T00:36:37.070Z,11.20
2022-11-03T00:39:05.233Z,11.95
2022-11-03T00:41:58.277Z,10.40
2022-11-03T00:44:25.325Z,11.15
2022-11-03T00:46:52.318Z,11.27
2022-11-03T00:49:19.422Z,10.10
2022-11-03T00:51:46.491Z,10.48
2022-11-03T00:54:13.486Z,10.52
2022-11-03T00:56:42.201Z,10.48
2022-11-03T01:02:53.384Z,10.88
2022-11-03T01:05:40.291Z,8.85
2022-11-03T01:08:07.650Z,9.15
2022-11-03T01:10:38.056Z,8.57
2022-11-03T01:15:32.434Z,10.63
2022-11-03T01:17:59.532Z,8.45
2022-11-03T01:20:26.510Z,10.50
2022-11-03T01:22:53.491Z,11.13
2022-11-03T01:25:20.515Z,9.65
2022-11-03T01:27:47.513Z,10.68
2022-11-03T01:30:14.656Z,8.52
2022-11-03T01:32:41.715Z,8.35
2022-11-03T01:35:08.875Z,11.00
2022-11-03T01:37:35.942Z,8.77
2022-11-03T01:40:02.965Z,10.25
2022-11-03T01:42:30.013Z,9.20
2022-11-03T01:44:57.030Z,9.35
2022-11-03T01:47:32.123Z,8.27
2022-11-03T01:50:14.111Z,8.15
2022-11-03T01:52:50.289Z,7.68
2022-11-03T01:55:21.752Z,9.25
2022-11-03T01:57:59.921Z,9.45
2022-11-03T02:00:27.270Z,8.10
2022-11-03T02:02:55.110Z,9.10
2022-11-03T02:05:25.891Z,9.20
2022-11-03T02:08:13.724Z,13.15
2022-11-03T02:10:40.863Z,8.77
2022-11-03T02:13:15.484Z,9.20
2022-11-03T02:15:43.108Z,9.68
2022-11-03T02:18:12.676Z,7.90
2022-11-03T02:20:41.815Z,7.82
2022-11-03T02:23:26.635Z,8.80
2022-11-03T02:25:55.904Z,7.28
2022-11-03T02:28:31.176Z,9.45
2022-11-03T02:31:28.404Z,7.53
2022-11-03T02:34:17.984Z,8.75
2022-11-03T02:37:04.651Z,10.17
2022-11-03T02:39:46.517Z,8.50
2022-11-03T02:42:15.471Z,8.95
2022-11-03T02:44:43.673Z,8.65
2022-11-03T02:47:13.189Z,9.38
2022-11-03T02:49:46.200Z,7.80
2022-11-03T02:52:34.735Z,7.95
2022-11-03T02:55:13.147Z,7.72
2022-11-03T02:57:55.232Z,7.53
2022-11-03T03:00:22.595Z,8.18
2022-11-03T03:03:04.146Z,7.00
2022-11-03T03:05:34.436Z,7.50
2022-11-03T03:08:07.949Z,9.40
2022-11-03T03:10:43.802Z,8.65
2022-11-03T03:13:17.242Z,7.18
2022-11-03T03:15:52.378Z,8.68
2022-11-03T03:18:31.107Z,7.72
2022-11-03T03:21:11.533Z,7.13
2022-11-03T03:26:18.518Z,7.85
2022-11-03T03:28:53.689Z,7.80
2022-11-03T03:31:21.685Z,6.60
2022-11-03T03:33:53.242Z,7.57
2022-11-03T03:36:26.135Z,7.50
2022-11-03T03:38:58.831Z,7.00
2022-11-03T03:41:28.621Z,6.43
2022-11-03T03:44:00.479Z,7.47
2022-11-03T03:46:31.653Z,6.80
2022-11-03T03:48:58.778Z,6.28
2022-11-03T03:51:28.902Z,7.03
2022-11-03T03:53:56.107Z,5.68
2022-11-03T03:56:38.228Z,7.80
2022-11-03T03:59:05.213Z,6.15
2022-11-03T04:01:32.314Z,6.90
2022-11-03T04:03:59.501Z,6.47
2022-11-03T04:06:26.685Z,5.75
2022-11-03T04:08:53.714Z,7.65
2022-11-03T04:11:40.610Z,6.30
2022-11-03T04:14:29.781Z,6.72
2022-11-03T04:17:16.718Z,7.32
2022-11-03T04:20:03.609Z,7.50
2022-11-03T04:22:33.531Z,6.82
2022-11-03T04:25:01.231Z,8.18
2022-11-03T04:27:36.646Z,6.57
2022-11-03T04:30:16.718Z,5.70
2022-11-03T04:32:51.645Z,6.18
2022-11-03T04:35:28.394Z,6.95
2022-11-03T04:38:16.635Z,5.35
2022-11-03T04:40:49.103Z,6.70
2022-11-03T04:43:20.908Z,6.70
2022-11-03T04:45:49.557Z,6.32
2022-11-03T04:48:21.351Z,7.70
2022-11-03T04:50:50.237Z,6.90
2022-11-03T04:53:19.017Z,5.60
2022-11-03T04:55:49.762Z,6.53
2022-11-03T04:58:26.588Z,6.63
2022-11-03T05:00:57.023Z,6.32
2022-11-03T05:03:27.608Z,6.93
2022-11-03T05:05:54.713Z,5.45
2022-11-03T05:08:22.369Z,6.75
2022-11-03T05:10:49.984Z,7.57
2022-11-03T05:13:25.769Z,7.47
2022-11-03T05:15:57.017Z,6.68
2022-11-03T05:18:35.433Z,7.18
2022-11-03T05:21:12.449Z,4.93
2022-11-03T05:23:42.432Z,5.88
2022-11-03T05:26:20.211Z,6.35
2022-11-03T05:29:00.032Z,8.18
2022-11-03T05:31:29.636Z,5.25
2022-11-03T05:34:02.623Z,5.57
2022-11-03T05:36:33.141Z,6.38
2022-11-03T05:39:28.012Z,7.05
2022-11-03T05:41:55.697Z,7.68
2022-11-03T05:44:39.785Z,6.28
2022-11-03T05:47:18.904Z,6.65
2022-11-03T05:49:46.110Z,7.60
2022-11-03T05:52:19.920Z,7.22
2022-11-03T05:54:47.272Z,6.97
2022-11-03T05:57:16.485Z,4.75
2022-11-03T05:59:46.181Z,5.97
2022-11-03T06:02:40.450Z,5.97
2022-11-03T06:05:24.397Z,8.60
2022-11-03T06:07:54.254Z,5.93
2022-11-03T06:10:34.765Z,6.40
2022-11-03T06:15:42.048Z,6.97
2022-11-03T06:18:21.612Z,6.07
2022-11-03T06:29:19.686Z,7.95
2022-11-03T06:31:50.762Z,9.15
2022-11-03T06:34:41.685Z,8.57
2022-11-03T06:37:21.975Z,7.15
2022-11-03T06:39:49.874Z,7.57
2022-11-03T06:42:20.330Z,6.60
2022-11-03T06:47:28.082Z,10.00
2022-11-03T06:53:46.696Z,7.50
2022-11-03T07:07:16.905Z,9.20
2022-11-03T07:13:35.541Z,8.25
2022-11-03T07:21:50.403Z,7.10
2022-11-03T07:24:24.824Z,8.77
2022-11-03T07:27:17.902Z,8.20
2022-11-03T07:29:46.335Z,6.97
2022-11-03T07:32:21.414Z,11.10
2022-11-03T07:34:52.593Z,8.57
2022-11-03T07:37:23.991Z,9.75
2022-11-03T07:47:26.580Z,11.63
2022-11-03T07:49:55.467Z,12.15
2022-11-03T07:52:25.962Z,10.32
2022-11-03T07:55:40.876Z,7.97
2022-11-03T07:58:24.355Z,13.88
2022-11-03T08:00:57.841Z,9.80
2022-11-03T08:04:15.459Z,9.40
2022-11-03T08:06:42.481Z,9.48
2022-11-03T08:09:09.513Z,11.48
2022-11-03T08:15:17.438Z,10.63
2022-11-03T08:17:44.387Z,10.57
2022-11-03T08:24:02.101Z,9.75
2022-11-03T08:26:29.254Z,9.60
2022-11-03T08:28:56.250Z,11.45
2022-11-03T08:31:23.207Z,10.18
2022-11-03T08:33:50.224Z,9.63
2022-11-03T08:36:17.492Z,9.50
2022-11-03T08:38:44.525Z,8.43
2022-11-03T08:41:12.236Z,13.50
2022-11-03T08:43:39.274Z,8.02
2022-11-03T08:46:15.822Z,10.35
2022-11-03T08:48:46.314Z,8.18
2022-11-03T08:51:14.809Z,9.30
2022-11-03T08:53:46.570Z,9.73
2022-11-03T08:56:15.017Z,12.18
2022-11-03T08:58:47.049Z,6.85
2022-11-03T09:04:54.773Z,9.93
2022-11-03T09:14:43.626Z,12.45
2022-11-03T09:17:10.650Z,8.60
2022-11-03T09:19:37.677Z,5.78
2022-11-03T09:22:04.707Z,10.68
2022-11-03T09:24:31.897Z,7.28
2022-11-03T09:27:02.161Z,7.35
2022-11-03T09:29:32.916Z,9.13
2022-11-03T09:32:08.348Z,6.28
2022-11-03T09:34:35.344Z,8.90
2022-11-03T09:37:02.349Z,7.70
2022-11-03T09:43:11.054Z,8.60
2022-11-03T09:57:17.418Z,6.45
2022-11-03T09:59:46.792Z,7.15
2022-11-03T10:12:43.302Z,5.40
2022-11-03T10:15:18.490Z,7.20
2022-11-03T10:21:38.134Z,6.07
2022-11-03T10:24:05.726Z,7.18
2022-11-03T10:26:46.279Z,5.13
2022-11-03T10:32:54.048Z,5.15
2022-11-03T10:43:11.910Z,6.63
2022-11-03T10:45:38.935Z,6.57
2022-11-03T10:48:08.281Z,4.82
2022-11-03T10:59:45.651Z,4.50
2022-11-03T11:02:22.417Z,7.07
2022-11-03T11:04:53.921Z,4.75
2022-11-03T11:07:29.455Z,8.55
2022-11-03T11:09:56.583Z,3.65
2022-11-03T11:12:25.260Z,8.05
2022-11-03T11:14:55.185Z,4.10
2022-11-03T11:17:43.864Z,6.65
2022-11-03T11:20:28.836Z,3.63
2022-11-03T11:22:55.992Z,5.68
2022-11-03T11:26:02.745Z,3.47
2022-11-03T11:28:29.754Z,6.70
2022-11-03T11:30:58.217Z,5.45
2022-11-03T11:33:27.866Z,5.50
2022-11-03T11:36:06.650Z,3.78
2022-11-03T11:38:57.686Z,3.50
2022-11-03T11:42:04.457Z,5.72
2022-11-03T11:44:54.106Z,8.20
2022-11-03T11:51:16.212Z,3.20
2022-11-03T11:53:46.128Z,6.95
2022-11-03T11:56:19.150Z,2.72
2022-11-03T11:58:51.712Z,2.30
2022-11-03T12:05:05.003Z,4.93
2022-11-03T12:15:55.431Z,4.15
2022-11-03T12:18:35.095Z,4.30
2022-11-03T12:21:10.998Z,4.07
2022-11-03T12:27:41.408Z,4.38
2022-11-03T12:30:19.554Z,4.68
2022-11-03T12:32:47.491Z,4.55
2022-11-03T12:43:26.495Z,2.60
2022-11-03T12:45:53.582Z,2.22
2022-11-03T12:48:25.773Z,3.78
2022-11-03T12:50:52.746Z,2.67
2022-11-03T12:57:07.058Z,5.32
2022-11-03T12:59:34.055Z,5.43
2022-11-03T13:02:01.239Z,1.90
2022-11-03T13:04:31.197Z,2.25
2022-11-03T13:15:50.301Z,3.15
2022-11-03T13:22:07.342Z,4.70
2022-11-03T13:31:28.483Z,3.65
2022-11-03T13:41:40.584Z,2.72
2022-11-03T13:48:28.998Z,3.00
2022-11-03T13:51:03.670Z,6.10
2022-11-03T13:56:21.872Z,4.18
2022-11-03T14:01:48.350Z,3.83
2022-11-03T14:07:15.068Z,6.63
2022-11-03T14:09:50.600Z,2.45
2022-11-03T14:12:34.666Z,4.95
2022-11-03T14:15:06.290Z,4.72
2022-11-03T14:17:33.549Z,2.53
2022-11-03T14:20:04.114Z,2.60
2022-11-03T14:22:32.874Z,3.20
2022-11-03T14:25:01.173Z,2.17
2022-11-03T14:27:28.512Z,1.45
2022-11-03T14:29:55.761Z,4.20
2022-11-03T14:32:22.838Z,2.97
2022-11-03T14:34:49.878Z,2.70
2022-11-03T14:37:17.062Z,1.48
2022-11-03T14:39:44.332Z,4.10
2022-11-03T14:42:16.023Z,1.88
2022-11-03T14:45:16.993Z,4.53
2022-11-03T14:47:43.972Z,2.40
2022-11-03T14:50:13.864Z,3.28
2022-11-03T14:52:40.948Z,3.03
2022-11-03T14:55:08.607Z,6.97
2022-11-03T15:01:28.594Z,4.00
2022-11-03T15:04:47.974Z,3.75
2022-11-03T15:14:57.041Z,2.42
2022-11-03T15:17:26.702Z,4.03
2022-11-03T15:27:39.966Z,4.32
2022-11-03T15:30:08.120Z,3.88
2022-11-03T15:36:16.210Z,5.22
2022-11-03T15:38:43.278Z,2.75
2022-11-03T15:41:16.555Z,4.38
2022-11-03T15:43:45.084Z,3.20
2022-11-03T15:47:02.168Z,4.78
2022-11-03T15:49:29.137Z,6.47
2022-11-03T15:51:56.134Z,5.50
2022-11-03T15:54:23.367Z,4.25
2022-11-03T15:56:50.440Z,10.20
2022-11-03T15:59:18.342Z,5.25
2022-11-03T16:05:26.189Z,2.90
2022-11-03T16:07:53.256Z,5.93
2022-11-03T16:10:20.247Z,6.38
2022-11-03T16:12:47.538Z,3.55
2022-11-03T16:18:54.818Z,8.55
2022-11-03T16:21:21.826Z,6.80
2022-11-03T16:23:48.819Z,8.38
2022-11-03T16:26:16.975Z,5.97
2022-11-03T16:28:43.932Z,5.07
2022-11-03T16:34:52.360Z,9.00
2022-11-03T16:37:19.838Z,10.32
2022-11-03T16:39:46.890Z,11.15
2022-11-03T16:42:13.943Z,8.18
2022-11-03T16:45:26.807Z,9.68
2022-11-03T16:47:54.154Z,9.82
2022-11-03T16:50:21.150Z,8.25
2022-11-03T16:52:49.436Z,10.32
2022-11-03T16:55:17.800Z,9.10
2022-11-03T16:57:45.965Z,10.60
2022-11-03T17:00:16.208Z,7.38
2022-11-03T17:02:43.740Z,11.57
2022-11-03T17:05:11.912Z,10.82
2022-11-03T17:07:39.391Z,9.25
2022-11-03T17:10:07.960Z,11.00
2022-11-03T17:12:35.083Z,7.18
2022-11-03T17:15:02.181Z,8.98
2022-11-03T17:17:29.210Z,11.30
2022-11-03T17:19:56.247Z,12.35
2022-11-03T17:22:23.545Z,6.18
2022-11-03T17:24:50.694Z,11.07
2022-11-03T17:27:25.261Z,17.90
2022-11-03T17:29:59.330Z,9.63
2022-11-03T17:32:37.856Z,11.25
2022-11-03T17:35:14.568Z,15.38
2022-11-03T17:37:41.684Z,10.55
2022-11-03T17:40:16.852Z,7.45
2022-11-03T17:42:44.199Z,8.65
2022-11-03T17:45:20.287Z,7.07
2022-11-03T17:47:47.520Z,7.40
2022-11-03T17:50:17.347Z,11.65
2022-11-03T17:52:46.588Z,11.27
2022-11-03T17:55:29.401Z,7.50
2022-11-03T17:57:59.802Z,8.77
2022-11-03T18:02:56.403Z,11.70
2022-11-03T18:05:31.347Z,10.07
2022-11-03T18:08:02.364Z,7.82
2022-11-03T18:10:35.435Z,11.70
2022-11-03T18:13:17.297Z,10.75
2022-11-03T18:16:06.247Z,9.65
2022-11-03T18:18:41.983Z,9.52
2022-11-03T18:21:15.222Z,8.85
2022-11-03T18:23:42.300Z,11.40
2022-11-03T18:26:20.990Z,9.02
2022-11-03T18:28:50.410Z,10.15
2022-11-03T18:31:34.076Z,8.83
2022-11-03T18:34:05.375Z,9.00
2022-11-03T18:36:34.344Z,7.72
2022-11-03T18:39:02.748Z,12.60
2022-11-03T18:41:40.362Z,15.88
2022-11-03T18:44:20.526Z,10.13
2022-11-03T18:46:49.164Z,8.10
2022-11-03T18:49:16.482Z,11.85
2022-11-03T18:52:02.037Z,13.32
2022-11-03T18:54:31.646Z,11.00
2022-11-03T18:56:59.326Z,10.88
2022-11-03T18:59:29.592Z,8.90
2022-11-03T19:01:56.784Z,11.27
2022-11-03T19:04:24.133Z,11.63
2022-11-03T19:06:52.944Z,9.45
2022-11-03T19:09:24.780Z,9.27
2022-11-03T19:11:54.733Z,12.32
2022-11-03T19:14:31.921Z,8.15
2022-11-03T19:19:53.870Z,8.65
2022-11-03T19:22:23.046Z,11.13
2022-11-03T19:24:50.169Z,8.18
2022-11-03T19:27:22.346Z,8.73
2022-11-03T19:29:49.980Z,8.25
2022-11-03T19:32:23.694Z,8.40
2022-11-03T19:34:58.280Z,9.23
2022-11-03T19:37:27.138Z,9.38
2022-11-03T19:39:58.232Z,9.25
2022-11-03T19:42:28.254Z,11.50
2022-11-03T19:44:59.837Z,11.15
2022-11-03T19:47:32.702Z,9.68
2022-11-03T19:50:03.007Z,12.20
2022-11-03T19:52:32.660Z,10.55
2022-11-03T19:55:02.847Z,7.80
2022-11-03T19:57:29.957Z,8.35
2022-11-03T19:59:59.235Z,12.20
2022-11-03T20:02:28.331Z,12.23
2022-11-03T20:04:55.931Z,9.68
2022-11-03T20:07:28.179Z,8.57
2022-11-03T20:09:58.378Z,7.07
2022-11-03T20:12:25.564Z,9.00
2022-11-03T20:14:52.699Z,10.35
2022-11-03T20:17:22.969Z,8.85
2022-11-03T20:19:50.159Z,8.98
2022-11-03T20:22:29.061Z,10.45
2022-11-03T20:25:00.681Z,11.93
2022-11-03T20:27:27.773Z,10.10
2022-11-03T20:29:55.153Z,8.65
2022-11-03T20:32:22.165Z,9.38
2022-11-03T20:34:49.206Z,8.95
2022-11-03T20:37:19.223Z,10.57
2022-11-03T20:39:47.567Z,12.90
2022-11-03T20:42:26.624Z,11.27
2022-11-03T20:44:53.740Z,12.02
2022-11-03T20:47:21.081Z,9.02
2022-11-03T20:49:48.565Z,9.65
2022-11-03T20:52:16.281Z,8.02
2022-11-03T20:54:43.989Z,8.00
2022-11-03T20:57:13.581Z,11.18
2022-11-03T20:59:41.528Z,9.25
2022-11-03T21:02:13.148Z,9.40
2022-11-03T21:04:41.161Z,8.23
2022-11-03T21:07:11.704Z,10.48
2022-11-03T21:09:38.891Z,11.38
2022-11-03T21:12:08.865Z,9.90
2022-11-03T21:14:35.908Z,11.65
2022-11-03T21:17:22.934Z,10.13
2022-11-03T21:19:59.390Z,9.48
2022-11-03T21:22:52.451Z,10.32
2022-11-03T21:25:22.495Z,9.85
2022-11-03T21:27:49.881Z,8.43
2022-11-03T21:30:17.625Z,11.13
2022-11-03T21:32:44.776Z,13.85
2022-11-03T21:35:17.349Z,10.10
2022-11-03T21:37:44.439Z,9.38
2022-11-03T21:40:11.990Z,8.50
2022-11-03T21:42:59.160Z,7.97
2022-11-03T21:45:26.766Z,10.05
2022-11-03T21:48:14.736Z,8.93
2022-11-03T21:50:43.140Z,8.65
2022-11-03T21:53:10.971Z,10.45
2022-11-03T21:55:38.664Z,9.07
2022-11-03T21:58:05.913Z,10.40
2022-11-03T22:00:33.551Z,8.85
2022-11-03T22:03:01.196Z,10.18
2022-11-03T22:05:28.371Z,7.28
2022-11-03T22:07:55.424Z,10.25
2022-11-03T22:10:22.940Z,7.95
2022-11-03T22:12:50.324Z,9.50
2022-11-03T22:15:37.347Z,6.63
2022-11-03T22:18:06.605Z,10.50
2022-11-03T22:20:55.991Z,9.60
2022-11-03T22:23:42.863Z,7.90
2022-11-03T22:26:35.487Z,10.02
2022-11-03T22:29:22.559Z,9.48
2022-11-03T22:31:49.610Z,8.82
2022-11-03T22:34:36.505Z,9.95
2022-11-03T22:37:03.557Z,10.82
2022-11-03T22:39:50.461Z,7.32
2022-11-03T22:42:37.384Z,7.13
2022-11-03T22:45:24.603Z,8.68
2022-11-03T22:47:57.472Z,6.85
2022-11-03T22:50:24.850Z,7.95
2022-11-03T22:52:51.860Z,7.80
2022-11-03T22:55:18.860Z,8.07
2022-11-03T22:57:45.881Z,8.70
2022-11-03T23:00:14.158Z,8.15
2022-11-03T23:02:41.404Z,8.52
2022-11-03T23:05:08.863Z,7.38
2022-11-03T23:07:40.989Z,7.15
2022-11-03T23:10:08.985Z,7.90
2022-11-03T23:12:36.047Z,7.45
2022-11-03T23:15:23.010Z,8.73
2022-11-03T23:18:09.991Z,6.78
2022-11-03T23:20:58.208Z,8.77
2022-11-03T23:23:45.124Z,10.32
2022-11-03T23:26:12.529Z,9.07
2022-11-03T23:28:39.811Z,7.32
2022-11-03T23:31:07.237Z,6.88
2022-11-03T23:33:34.777Z,6.32
2022-11-03T23:36:08.757Z,8.05
2022-11-03T23:38:37.089Z,7.40
2022-11-03T23:41:06.372Z,7.40
2022-11-03T23:43:33.873Z,11.27
2022-11-03T23:46:21.067Z,7.63
2022-11-03T23:48:48.394Z,7.25
2022-11-03T23:51:17.790Z,8.48
2022-11-03T23:53:45.846Z,7.05
2022-11-03T23:56:34.619Z,9.43
2022-11-03T23:59:01.643Z,7.78
